createdAt,value
2023-11-25T00:01:54.578Z,44.10
2023-11-25T00:06:56.042Z,44.20
2023-11-25T00:11:58.810Z,44.10
2023-11-25T00:17:00.282Z,44.10
2023-11-25T00:22:01.790Z,45.40
2023-11-25T00:27:03.242Z,45.10
2023-11-25T00:32:04.703Z,44.70
2023-11-25T00:37:06.177Z,44.60
2023-11-25T00:42:07.763Z,44.50
2023-11-25T00:47:09.363Z,44.40
2023-11-25T00:52:10.869Z,44.30
2023-11-25T00:57:12.363Z,44.30
2023-11-25T01:02:13.899Z,44.30
2023-11-25T01:07:15.408Z,44.30
2023-11-25T01:12:16.884Z,44.40
2023-11-25T01:17:18.333Z,44.40
2023-11-25T01:22:19.940Z,44.40
2023-11-25T01:27:21.403Z,44.40
2023-11-25T01:32:22.833Z,44.50
2023-11-25T01:37:24.308Z,44.50
2023-11-25T01:42:26.027Z,44.50
2023-11-25T01:47:27.462Z,44.50
2023-11-25T01:52:28.937Z,44.50
2023-11-25T01:57:30.430Z,44.40
2023-11-25T02:02:32.058Z,44.40
2023-11-25T02:07:33.626Z,44.40
2023-11-25T02:12:35.124Z,44.40
2023-11-25T02:17:36.565Z,44.50
2023-11-25T02:22:38.029Z,44.40
2023-11-25T02:27:39.500Z,44.40
2023-11-25T02:32:40.999Z,44.40
2023-11-25T02:37:42.510Z,44.50
2023-11-25T02:42:43.972Z,44.50
2023-11-25T02:47:45.506Z,44.40
2023-11-25T02:52:47.088Z,44.50
2023-11-25T02:57:48.578Z,44.40
2023-11-25T03:02:50.105Z,44.40
2023-11-25T03:07:51.641Z,44.40
2023-11-25T03:12:53.124Z,44.40
2023-11-25T03:17:54.606Z,44.40
2023-11-25T03:22:56.085Z,44.40
2023-11-25T03:27:57.574Z,44.40
2023-11-25T03:32:59.085Z,44.40
2023-11-25T03:38:00.583Z,44.40
2023-11-25T03:43:02.055Z,44.40
2023-11-25T03:48:03.533Z,45.00
2023-11-25T03:53:04.989Z,44.40
2023-11-25T03:58:06.545Z,44.40
2023-11-25T04:03:08.144Z,44.30
2023-11-25T04:08:09.654Z,44.40
2023-11-25T04:13:11.145Z,44.90
2023-11-25T04:18:12.636Z,44.40
2023-11-25T04:23:14.140Z,44.40
2023-11-25T04:28:15.634Z,44.90
2023-11-25T04:33:17.111Z,44.40
2023-11-25T04:38:18.582Z,44.40
2023-11-25T04:43:20.082Z,44.50
2023-11-25T04:48:21.710Z,44.40
2023-11-25T04:53:23.184Z,44.40
2023-11-25T04:58:24.681Z,44.30
2023-11-25T05:03:26.169Z,44.30
2023-11-25T05:08:27.648Z,44.30
2023-11-25T05:13:29.100Z,44.20
2023-11-25T05:18:30.564Z,44.20
2023-11-25T05:23:32.021Z,44.20
2023-11-25T05:28:33.498Z,44.20
2023-11-25T05:33:34.963Z,44.20
2023-11-25T05:38:36.405Z,44.30
2023-11-25T05:43:37.914Z,44.30
2023-11-25T05:48:39.410Z,44.20
2023-11-25T05:53:40.853Z,44.20
2023-11-25T05:58:42.410Z,44.20
2023-11-25T06:03:44.041Z,44.20
2023-11-25T06:08:45.547Z,44.40
2023-11-25T06:13:47.071Z,44.40
2023-11-25T06:18:48.626Z,43.90
2023-11-25T06:23:50.183Z,43.40
2023-11-25T06:28:51.652Z,43.00
2023-11-25T06:33:53.185Z,42.70
2023-11-25T06:38:54.673Z,42.40
2023-11-25T06:43:56.160Z,42.30
2023-11-25T06:48:57.648Z,42.20
2023-11-25T06:53:59.126Z,42.20
2023-11-25T06:59:00.581Z,42.30
2023-11-25T07:04:02.044Z,42.40
2023-11-25T07:09:03.536Z,42.40
2023-11-25T07:14:04.998Z,42.50
2023-11-25T07:19:06.448Z,42.70
2023-11-25T07:24:07.883Z,42.80
2023-11-25T07:29:09.340Z,43.00
2023-11-25T07:34:10.775Z,43.10
2023-11-25T07:39:12.226Z,43.10
2023-11-25T07:44:13.829Z,43.30
2023-11-25T07:49:15.304Z,43.40
2023-11-25T07:54:16.790Z,43.40
2023-11-25T07:59:18.232Z,43.50
2023-11-25T08:04:19.742Z,43.50
2023-11-25T08:09:21.261Z,43.60
2023-11-25T08:14:22.743Z,43.60
2023-11-25T08:19:24.297Z,43.70
2023-11-25T08:24:25.763Z,43.70
2023-11-25T08:29:27.200Z,43.70
2023-11-25T08:34:28.653Z,43.70
2023-11-25T08:39:30.123Z,43.80
2023-11-25T08:44:31.587Z,43.80
2023-11-25T08:49:33.153Z,43.80
2023-11-25T08:54:34.610Z,43.80
2023-11-25T08:59:36.143Z,44.40
2023-11-25T09:04:37.716Z,43.80
2023-11-25T09:09:39.184Z,43.80
2023-11-25T09:14:40.646Z,43.80
2023-11-25T09:19:42.133Z,43.80
2023-11-25T09:24:43.599Z,43.80
2023-11-25T09:29:46.085Z,43.80
2023-11-25T09:34:49.061Z,43.80
2023-11-25T09:39:52.081Z,43.80
2023-11-25T09:44:53.564Z,43.80
2023-11-25T09:49:55.039Z,43.80
2023-11-25T09:54:56.506Z,43.80
2023-11-25T09:59:57.963Z,43.80
2023-11-25T10:04:59.414Z,43.80
2023-11-25T10:10:00.901Z,43.80
2023-11-25T10:15:02.374Z,43.80
2023-11-25T10:20:03.829Z,43.80
2023-11-25T10:25:05.329Z,43.80
2023-11-25T10:30:06.839Z,43.80
2023-11-25T10:35:08.291Z,43.80
2023-11-25T10:40:09.759Z,43.80
2023-11-25T10:45:11.193Z,43.80
2023-11-25T10:50:12.640Z,43.80
2023-11-25T10:55:14.203Z,43.80
2023-11-25T11:00:15.852Z,43.80
2023-11-25T11:05:17.294Z,43.80
2023-11-25T11:10:18.748Z,43.80
2023-11-25T11:15:20.221Z,43.80
2023-11-25T11:20:21.673Z,43.80
2023-11-25T11:25:23.149Z,43.80
2023-11-25T11:30:24.635Z,43.90
2023-11-25T11:35:26.187Z,43.80
2023-11-25T11:40:27.647Z,43.90
2023-11-25T11:45:29.165Z,43.80
2023-11-25T11:50:30.824Z,43.80
2023-11-25T11:55:32.419Z,43.80
2023-11-25T12:00:33.889Z,43.80
2023-11-25T12:05:35.413Z,43.80
2023-11-25T12:10:36.988Z,43.80
2023-11-25T12:15:38.509Z,43.80
2023-11-25T12:20:39.957Z,43.80
2023-11-25T12:25:41.517Z,43.80
2023-11-25T12:30:43.032Z,43.80
2023-11-25T12:35:44.598Z,43.80
2023-11-25T12:40:46.778Z,43.80
2023-11-25T12:45:48.490Z,43.80
2023-11-25T12:50:49.947Z,43.80
2023-11-25T12:55:51.445Z,43.80
2023-11-25T13:00:52.911Z,43.80
2023-11-25T13:05:54.336Z,43.50
2023-11-25T13:10:55.808Z,43.20
2023-11-25T13:15:57.252Z,42.80
2023-11-25T13:20:58.696Z,42.60
2023-11-25T13:26:00.174Z,42.50
2023-11-25T13:31:01.664Z,42.40
2023-11-25T13:36:03.124Z,42.30
2023-11-25T13:41:04.589Z,42.30
2023-11-25T13:46:06.184Z,42.40
2023-11-25T13:51:07.656Z,42.40
2023-11-25T13:56:09.143Z,42.50
2023-11-25T14:01:10.665Z,42.60
2023-11-25T14:06:12.181Z,42.70
2023-11-25T14:11:13.661Z,42.80
2023-11-25T14:16:15.179Z,42.90
2023-11-25T14:21:16.642Z,43.00
2023-11-25T14:26:18.080Z,43.00
2023-11-25T14:31:19.516Z,43.20
2023-11-25T14:36:20.968Z,43.30
2023-11-25T14:41:22.470Z,43.20
2023-11-25T14:46:24.033Z,43.30
2023-11-25T14:51:25.523Z,43.40
2023-11-25T14:56:26.975Z,43.40
2023-11-25T15:01:28.455Z,43.40
2023-11-25T15:06:29.965Z,43.40
2023-11-25T15:11:31.430Z,43.50
2023-11-25T15:16:32.947Z,43.50
2023-11-25T15:21:34.437Z,43.40
2023-11-25T15:26:35.885Z,44.00
2023-11-25T15:31:37.421Z,43.50
2023-11-25T15:36:38.894Z,43.50
2023-11-25T15:41:40.364Z,43.50
2023-11-25T15:46:41.971Z,43.50
2023-11-25T15:51:43.459Z,43.50
2023-11-25T15:56:44.903Z,43.50
2023-11-25T16:01:46.504Z,43.60
2023-11-25T16:06:48.019Z,43.50
2023-11-25T16:11:49.480Z,43.50
2023-11-25T16:16:51.133Z,43.50
2023-11-25T16:21:52.643Z,43.60
2023-11-25T16:26:54.106Z,43.60
2023-11-25T16:31:55.662Z,43.60
2023-11-25T16:36:57.191Z,43.60
2023-11-25T16:41:58.652Z,43.60
2023-11-25T16:47:00.105Z,43.60
2023-11-25T16:52:01.604Z,43.60
2023-11-25T16:57:03.055Z,43.50
2023-11-25T17:02:04.582Z,43.60
2023-11-25T17:07:06.071Z,43.60
2023-11-25T17:12:07.530Z,43.60
2023-11-25T17:17:09.058Z,43.60
2023-11-25T17:22:10.551Z,43.60
2023-11-25T17:27:12.013Z,43.60
2023-11-25T17:32:13.482Z,43.60
2023-11-25T17:37:15.009Z,43.40
2023-11-25T17:42:16.478Z,43.20
2023-11-25T17:47:17.996Z,42.90
2023-11-25T17:52:19.508Z,42.70
2023-11-25T17:57:21.009Z,42.50
2023-11-25T18:02:22.734Z,42.40
2023-11-25T18:07:24.235Z,42.40
2023-11-25T18:12:25.681Z,42.40
2023-11-25T18:17:27.243Z,42.40
2023-11-25T18:22:29.028Z,42.60
2023-11-25T18:27:30.559Z,42.50
2023-11-25T18:32:32.043Z,42.70
2023-11-25T18:37:33.531Z,42.70
2023-11-25T18:42:35.027Z,42.90
2023-11-25T18:47:36.530Z,42.90
2023-11-25T18:52:38.097Z,43.00
2023-11-25T18:57:39.636Z,43.10
2023-11-25T19:02:41.213Z,43.20
2023-11-25T19:07:42.716Z,43.20
2023-11-25T19:12:44.179Z,43.30
2023-11-25T19:17:45.918Z,43.30
2023-11-25T19:22:47.427Z,43.30
2023-11-25T19:27:48.919Z,43.40
2023-11-25T19:32:50.465Z,43.30
2023-11-25T19:37:51.994Z,43.40
2023-11-25T19:42:53.464Z,43.40
2023-11-25T19:47:55.293Z,43.40
2023-11-25T19:52:56.897Z,43.40
2023-11-25T19:57:58.439Z,43.50
2023-11-25T20:02:59.999Z,43.50
2023-11-25T20:08:01.546Z,43.40
2023-11-25T20:13:03.026Z,43.40
2023-11-25T20:18:04.563Z,43.50
2023-11-25T20:23:06.074Z,43.50
2023-11-25T20:28:07.532Z,43.50
2023-11-25T20:33:09.211Z,43.50
2023-11-25T20:38:10.845Z,43.50
2023-11-25T20:43:12.348Z,43.50
2023-11-25T20:48:13.807Z,43.50
2023-11-25T20:53:15.302Z,43.50
2023-11-25T20:58:16.772Z,43.40
2023-11-25T21:03:18.349Z,43.50
2023-11-25T21:08:19.918Z,43.50
2023-11-25T21:13:21.363Z,43.50
2023-11-25T21:18:22.800Z,43.50
2023-11-25T21:23:24.251Z,43.40
2023-11-25T21:28:25.702Z,43.30
2023-11-25T21:33:27.208Z,43.00
2023-11-25T21:38:28.667Z,42.90
2023-11-25T21:43:30.125Z,42.80
2023-11-25T21:48:31.577Z,42.60
2023-11-25T21:53:33.036Z,42.60
2023-11-25T21:58:34.469Z,42.60
2023-11-25T22:03:36.014Z,42.60
2023-11-25T22:08:37.563Z,42.70
2023-11-25T22:13:39.030Z,42.80
2023-11-25T22:18:40.473Z,42.80
2023-11-25T22:23:41.962Z,42.90
2023-11-25T22:28:43.507Z,42.90
2023-11-25T22:33:44.995Z,43.00
2023-11-25T22:38:46.462Z,43.10
2023-11-25T22:43:47.987Z,43.10
2023-11-25T22:48:49.521Z,43.20
2023-11-25T22:53:51.002Z,43.20
2023-11-25T22:58:52.507Z,43.20
2023-11-25T23:03:54.009Z,43.20
2023-11-25T23:08:55.516Z,43.30
2023-11-25T23:13:57.030Z,43.30
2023-11-25T23:18:58.623Z,43.30
2023-11-25T23:24:00.066Z,43.30
2023-11-25T23:29:01.539Z,43.40
2023-11-25T23:34:03.013Z,43.30
2023-11-25T23:39:04.474Z,43.30
2023-11-25T23:44:05.964Z,43.30
2023-11-25T23:49:07.442Z,43.30
2023-11-25T23:54:08.940Z,43.30
2023-11-25T23:59:10.498Z,43.40
